Terminal Aerodrome Forecast
Issued by NWS Cleveland, OH

Home | Current Version | Previous Version | Graphics & Text | Print | Product List | Glossary On
Versions: 1 2 3 4 5 6 7 8 9 10 11 12 13 14 15 16 17 18
000
FTUS41 KCLE 301734
TAFCAK
TAF
KCAK 301734Z 3018/0118 13006KT P6SM BKN025 OVC100
      TEMPO 3018/3020 SCT025 OVC100
     FM302000 12006KT P6SM OVC070
     FM302200 12010KT 6SM -RA OVC035
     FM010000 13010KT 3SM -RA BR OVC015
     FM010300 13012KT 3SM -RA BR OVC004
     FM011400 22010KT 6SM BR OVC008=

USA.gov is the U.S. government's official web portal to all federal, state and local government web resources and services.